sensor_id;sensor_type;location;lat;lon;timestamp;P1;durP1;ratioP1;P2;durP2;ratioP2
29402;SDS011;16382;59.942;30.472;2022-09-29T00:00:12;2.30;;;1.20;;
29402;SDS011;16382;59.942;30.472;2022-09-29T00:02:40;2.72;;;1.38;;
29402;SDS011;16382;59.942;30.472;2022-09-29T00:05:08;1.67;;;1.33;;
29402;SDS011;16382;59.942;30.472;2022-09-29T00:07:35;1.33;;;1.23;;
29402;SDS011;16382;59.942;30.472;2022-09-29T00:10:03;1.52;;;1.42;;
29402;SDS011;16382;59.942;30.472;2022-09-29T00:12:30;2.08;;;1.75;;
29402;SDS011;16382;59.942;30.472;2022-09-29T00:14:57;2.72;;;1.77;;
29402;SDS011;16382;59.942;30.472;2022-09-29T00:17:24;4.32;;;1.63;;
29402;SDS011;16382;59.942;30.472;2022-09-29T00:19:51;1.67;;;1.58;;
29402;SDS011;16382;59.942;30.472;2022-09-29T00:22:20;1.60;;;1.50;;
29402;SDS011;16382;59.942;30.472;2022-09-29T00:24:47;2.63;;;1.70;;
29402;SDS011;16382;59.942;30.472;2022-09-29T00:27:15;2.00;;;1.80;;
29402;SDS011;16382;59.942;30.472;2022-09-29T00:29:42;2.38;;;1.52;;
29402;SDS011;16382;59.942;30.472;2022-09-29T00:32:09;1.58;;;1.48;;
29402;SDS011;16382;59.942;30.472;2022-09-29T00:34:36;1.90;;;1.75;;
29402;SDS011;16382;59.942;30.472;2022-09-29T00:37:04;1.73;;;1.63;;
29402;SDS011;16382;59.942;30.472;2022-09-29T00:39:32;1.88;;;1.63;;
29402;SDS011;16382;59.942;30.472;2022-09-29T00:41:59;1.70;;;1.60;;
29402;SDS011;16382;59.942;30.472;2022-09-29T00:47:30;1.70;;;1.58;;
29402;SDS011;16382;59.942;30.472;2022-09-29T00:50:01;2.38;;;1.30;;
29402;SDS011;16382;59.942;30.472;2022-09-29T00:52:32;5.00;;;2.30;;
29402;SDS011;16382;59.942;30.472;2022-09-29T00:55:05;2.97;;;1.60;;
29402;SDS011;16382;59.942;30.472;2022-09-29T00:57:37;2.63;;;1.90;;
29402;SDS011;16382;59.942;30.472;2022-09-29T01:00:08;3.95;;;1.50;;
29402;SDS011;16382;59.942;30.472;2022-09-29T01:02:38;3.38;;;1.63;;
29402;SDS011;16382;59.942;30.472;2022-09-29T01:05:10;2.90;;;2.08;;
29402;SDS011;16382;59.942;30.472;2022-09-29T01:07:41;2.75;;;1.80;;
29402;SDS011;16382;59.942;30.472;2022-09-29T01:10:11;1.60;;;1.50;;
29402;SDS011;16382;59.942;30.472;2022-09-29T01:12:41;2.20;;;1.50;;
29402;SDS011;16382;59.942;30.472;2022-09-29T01:15:10;3.97;;;1.83;;
29402;SDS011;16382;59.942;30.472;2022-09-29T01:17:39;3.60;;;1.40;;
29402;SDS011;16382;59.942;30.472;2022-09-29T01:20:08;2.13;;;1.60;;
29402;SDS011;16382;59.942;30.472;2022-09-29T01:22:51;3.03;;;1.98;;
29402;SDS011;16382;59.942;30.472;2022-09-29T01:25:50;1.80;;;1.70;;
29402;SDS011;16382;59.942;30.472;2022-09-29T01:28:39;2.95;;;1.90;;
29402;SDS011;16382;59.942;30.472;2022-09-29T01:31:33;3.70;;;1.83;;
29402;SDS011;16382;59.942;30.472;2022-09-29T01:34:08;2.17;;;1.48;;
29402;SDS011;16382;59.942;30.472;2022-09-29T01:36:44;2.15;;;1.92;;
29402;SDS011;16382;59.942;30.472;2022-09-29T01:39:22;1.98;;;1.88;;
29402;SDS011;16382;59.942;30.472;2022-09-29T01:41:56;3.08;;;1.70;;
29402;SDS011;16382;59.942;30.472;2022-09-29T01:44:28;2.22;;;1.60;;
29402;SDS011;16382;59.942;30.472;2022-09-29T01:47:00;2.20;;;1.67;;
29402;SDS011;16382;59.942;30.472;2022-09-29T01:49:34;3.50;;;1.58;;
29402;SDS011;16382;59.942;30.472;2022-09-29T01:52:05;3.72;;;1.92;;
29402;SDS011;16382;59.942;30.472;2022-09-29T01:54:36;2.55;;;1.50;;
29402;SDS011;16382;59.942;30.472;2022-09-29T01:57:09;1.70;;;1.60;;
29402;SDS011;16382;59.942;30.472;2022-09-29T01:59:42;2.13;;;2.00;;
29402;SDS011;16382;59.942;30.472;2022-09-29T02:02:15;2.65;;;1.85;;
29402;SDS011;16382;59.942;30.472;2022-09-29T02:04:47;1.88;;;1.77;;
29402;SDS011;16382;59.942;30.472;2022-09-29T02:09:49;1.85;;;1.70;;
29402;SDS011;16382;59.942;30.472;2022-09-29T02:12:20;2.78;;;1.80;;
29402;SDS011;16382;59.942;30.472;2022-09-29T02:14:51;2.13;;;1.85;;
29402;SDS011;16382;59.942;30.472;2022-09-29T02:17:21;2.72;;;1.80;;
29402;SDS011;16382;59.942;30.472;2022-09-29T02:22:19;1.90;;;1.73;;
29402;SDS011;16382;59.942;30.472;2022-09-29T02:24:46;2.25;;;2.10;;
29402;SDS011;16382;59.942;30.472;2022-09-29T02:27:17;1.50;;;1.40;;
29402;SDS011;16382;59.942;30.472;2022-09-29T02:29:44;3.17;;;1.70;;
29402;SDS011;16382;59.942;30.472;2022-09-29T02:32:12;1.73;;;1.63;;
29402;SDS011;16382;59.942;30.472;2022-09-29T02:34:41;4.13;;;1.80;;
29402;SDS011;16382;59.942;30.472;2022-09-29T02:37:18;8.45;;;1.67;;
29402;SDS011;16382;59.942;30.472;2022-09-29T02:39:57;1.90;;;1.70;;
29402;SDS011;16382;59.942;30.472;2022-09-29T02:42:37;1.63;;;1.52;;
29402;SDS011;16382;59.942;30.472;2022-09-29T02:45:21;7.07;;;1.77;;
29402;SDS011;16382;59.942;30.472;2022-09-29T02:48:05;1.80;;;1.63;;
29402;SDS011;16382;59.942;30.472;2022-09-29T02:50:46;2.08;;;1.52;;
29402;SDS011;16382;59.942;30.472;2022-09-29T02:53:21;1.92;;;1.83;;
29402;SDS011;16382;59.942;30.472;2022-09-29T02:56:02;1.92;;;1.70;;
29402;SDS011;16382;59.942;30.472;2022-09-29T02:58:36;1.67;;;1.58;;
29402;SDS011;16382;59.942;30.472;2022-09-29T03:01:08;2.05;;;1.95;;
29402;SDS011;16382;59.942;30.472;2022-09-29T03:03:35;1.70;;;1.60;;
29402;SDS011;16382;59.942;30.472;2022-09-29T03:06:03;2.60;;;1.50;;
29402;SDS011;16382;59.942;30.472;2022-09-29T03:08:31;2.22;;;1.52;;
29402;SDS011;16382;59.942;30.472;2022-09-29T03:10:58;2.25;;;1.63;;
29402;SDS011;16382;59.942;30.472;2022-09-29T03:13:26;2.33;;;1.88;;
29402;SDS011;16382;59.942;30.472;2022-09-29T03:15:53;3.03;;;1.40;;
29402;SDS011;16382;59.942;30.472;2022-09-29T03:18:20;3.45;;;1.42;;
29402;SDS011;16382;59.942;30.472;2022-09-29T03:20:48;2.13;;;1.50;;
29402;SDS011;16382;59.942;30.472;2022-09-29T03:23:17;3.25;;;1.45;;
29402;SDS011;16382;59.942;30.472;2022-09-29T03:25:44;2.95;;;1.70;;
29402;SDS011;16382;59.942;30.472;2022-09-29T03:28:11;2.00;;;1.73;;
29402;SDS011;16382;59.942;30.472;2022-09-29T03:30:40;3.35;;;2.05;;
29402;SDS011;16382;59.942;30.472;2022-09-29T03:33:07;3.05;;;1.38;;
29402;SDS011;16382;59.942;30.472;2022-09-29T03:35:35;4.35;;;2.78;;
29402;SDS011;16382;59.942;30.472;2022-09-29T03:38:02;4.47;;;2.38;;
29402;SDS011;16382;59.942;30.472;2022-09-29T03:40:30;2.10;;;1.58;;
29402;SDS011;16382;59.942;30.472;2022-09-29T03:42:57;3.08;;;2.13;;
29402;SDS011;16382;59.942;30.472;2022-09-29T03:45:24;1.52;;;1.00;;
29402;SDS011;16382;59.942;30.472;2022-09-29T03:47:52;3.40;;;1.60;;
29402;SDS011;16382;59.942;30.472;2022-09-29T03:50:19;2.20;;;1.42;;
29402;SDS011;16382;59.942;30.472;2022-09-29T03:52:46;4.30;;;1.48;;
29402;SDS011;16382;59.942;30.472;2022-09-29T03:55:13;2.95;;;1.50;;
29402;SDS011;16382;59.942;30.472;2022-09-29T03:57:42;2.30;;;1.63;;
29402;SDS011;16382;59.942;30.472;2022-09-29T04:00:10;2.15;;;1.50;;
29402;SDS011;16382;59.942;30.472;2022-09-29T04:02:38;2.45;;;1.25;;
29402;SDS011;16382;59.942;30.472;2022-09-29T04:05:05;2.45;;;1.17;;
29402;SDS011;16382;59.942;30.472;2022-09-29T04:07:33;1.77;;;1.60;;
29402;SDS011;16382;59.942;30.472;2022-09-29T04:10:00;2.80;;;1.50;;
29402;SDS011;16382;59.942;30.472;2022-09-29T04:12:28;2.33;;;2.03;;
29402;SDS011;16382;59.942;30.472;2022-09-29T04:14:57;4.93;;;1.33;;
29402;SDS011;16382;59.942;30.472;2022-09-29T04:17:24;2.63;;;1.33;;
29402;SDS011;16382;59.942;30.472;2022-09-29T04:19:52;3.45;;;1.27;;
29402;SDS011;16382;59.942;30.472;2022-09-29T04:22:19;1.50;;;1.40;;
29402;SDS011;16382;59.942;30.472;2022-09-29T04:24:46;3.20;;;2.55;;
29402;SDS011;16382;59.942;30.472;2022-09-29T04:27:13;4.50;;;1.92;;
29402;SDS011;16382;59.942;30.472;2022-09-29T04:29:41;6.07;;;2.22;;
29402;SDS011;16382;59.942;30.472;2022-09-29T04:32:09;4.75;;;2.40;;
29402;SDS011;16382;59.942;30.472;2022-09-29T04:34:37;3.95;;;2.03;;
29402;SDS011;16382;59.942;30.472;2022-09-29T04:37:06;8.57;;;2.40;;
29402;SDS011;16382;59.942;30.472;2022-09-29T04:39:35;5.88;;;2.80;;
29402;SDS011;16382;59.942;30.472;2022-09-29T04:42:02;5.90;;;1.50;;
29402;SDS011;16382;59.942;30.472;2022-09-29T05:33:03;4.07;;;2.13;;
29402;SDS011;16382;59.942;30.472;2022-09-29T05:35:31;3.03;;;2.35;;
29402;SDS011;16382;59.942;30.472;2022-09-29T05:37:58;6.13;;;2.95;;
29402;SDS011;16382;59.942;30.472;2022-09-29T05:40:25;8.13;;;2.17;;
29402;SDS011;16382;59.942;30.472;2022-09-29T05:42:52;2.40;;;2.17;;
29402;SDS011;16382;59.942;30.472;2022-09-29T05:45:19;3.40;;;2.20;;
29402;SDS011;16382;59.942;30.472;2022-09-29T05:47:47;4.57;;;2.20;;
29402;SDS011;16382;59.942;30.472;2022-09-29T05:50:16;2.47;;;2.20;;
29402;SDS011;16382;59.942;30.472;2022-09-29T05:52:43;3.67;;;1.98;;
29402;SDS011;16382;59.942;30.472;2022-09-29T05:55:13;3.45;;;1.90;;
29402;SDS011;16382;59.942;30.472;2022-09-29T05:57:41;4.50;;;3.17;;
29402;SDS011;16382;59.942;30.472;2022-09-29T06:00:08;9.75;;;2.78;;
29402;SDS011;16382;59.942;30.472;2022-09-29T06:02:38;5.80;;;2.50;;
29402;SDS011;16382;59.942;30.472;2022-09-29T06:05:06;2.78;;;2.00;;
29402;SDS011;16382;59.942;30.472;2022-09-29T06:07:35;3.30;;;2.67;;
29402;SDS011;16382;59.942;30.472;2022-09-29T06:10:02;2.65;;;1.80;;
29402;SDS011;16382;59.942;30.472;2022-09-29T06:12:32;3.67;;;2.08;;
29402;SDS011;16382;59.942;30.472;2022-09-29T06:15:01;6.57;;;1.98;;
29402;SDS011;16382;59.942;30.472;2022-09-29T06:17:29;2.50;;;2.30;;
29402;SDS011;16382;59.942;30.472;2022-09-29T06:19:56;4.05;;;2.40;;
29402;SDS011;16382;59.942;30.472;2022-09-29T06:22:23;3.90;;;2.10;;
29402;SDS011;16382;59.942;30.472;2022-09-29T06:24:53;2.05;;;1.90;;
29402;SDS011;16382;59.942;30.472;2022-09-29T06:27:20;2.17;;;1.92;;
29402;SDS011;16382;59.942;30.472;2022-09-29T06:29:47;3.17;;;1.90;;
29402;SDS011;16382;59.942;30.472;2022-09-29T06:32:15;4.03;;;2.22;;
29402;SDS011;16382;59.942;30.472;2022-09-29T06:34:42;7.85;;;2.38;;
29402;SDS011;16382;59.942;30.472;2022-09-29T06:37:23;3.42;;;2.80;;
29402;SDS011;16382;59.942;30.472;2022-09-29T06:40:06;2.50;;;2.25;;
29402;SDS011;16382;59.942;30.472;2022-09-29T06:42:34;2.70;;;1.90;;
29402;SDS011;16382;59.942;30.472;2022-09-29T06:45:01;1.70;;;1.60;;
29402;SDS011;16382;59.942;30.472;2022-09-29T06:47:29;3.30;;;3.05;;
29402;SDS011;16382;59.942;30.472;2022-09-29T06:49:56;4.10;;;3.60;;
29402;SDS011;16382;59.942;30.472;2022-09-29T06:52:26;1.92;;;1.83;;
29402;SDS011;16382;59.942;30.472;2022-09-29T06:54:54;3.13;;;2.15;;
29402;SDS011;16382;59.942;30.472;2022-09-29T06:57:23;1.58;;;1.40;;
29402;SDS011;16382;59.942;30.472;2022-09-29T06:59:51;2.50;;;1.70;;
29402;SDS011;16382;59.942;30.472;2022-09-29T07:02:18;1.90;;;1.30;;
29402;SDS011;16382;59.942;30.472;2022-09-29T07:04:46;3.70;;;1.80;;
29402;SDS011;16382;59.942;30.472;2022-09-29T07:07:13;3.90;;;1.67;;
29402;SDS011;16382;59.942;30.472;2022-09-29T07:09:40;1.60;;;1.50;;
29402;SDS011;16382;59.942;30.472;2022-09-29T07:12:08;1.50;;;1.33;;
29402;SDS011;16382;59.942;30.472;2022-09-29T07:14:37;1.70;;;1.50;;
29402;SDS011;16382;59.942;30.472;2022-09-29T07:17:04;1.75;;;1.65;;
29402;SDS011;16382;59.942;30.472;2022-09-29T07:19:33;3.15;;;1.52;;
29402;SDS011;16382;59.942;30.472;2022-09-29T07:22:00;1.85;;;1.75;;
29402;SDS011;16382;59.942;30.472;2022-09-29T07:24:28;2.90;;;1.80;;
29402;SDS011;16382;59.942;30.472;2022-09-29T07:26:55;2.60;;;1.63;;
29402;SDS011;16382;59.942;30.472;2022-09-29T07:29:22;3.33;;;1.30;;
29402;SDS011;16382;59.942;30.472;2022-09-29T07:31:51;2.42;;;2.15;;
29402;SDS011;16382;59.942;30.472;2022-09-29T07:34:19;3.92;;;2.10;;
29402;SDS011;16382;59.942;30.472;2022-09-29T07:36:47;1.55;;;1.35;;
29402;SDS011;16382;59.942;30.472;2022-09-29T07:39:14;2.65;;;1.30;;
29402;SDS011;16382;59.942;30.472;2022-09-29T07:41:41;4.30;;;1.35;;
29402;SDS011;16382;59.942;30.472;2022-09-29T07:44:08;1.88;;;1.38;;
29402;SDS011;16382;59.942;30.472;2022-09-29T07:46:36;1.40;;;1.30;;
29402;SDS011;16382;59.942;30.472;2022-09-29T07:49:04;1.83;;;1.70;;
29402;SDS011;16382;59.942;30.472;2022-09-29T07:51:31;2.22;;;1.52;;
29402;SDS011;16382;59.942;30.472;2022-09-29T07:54:00;1.50;;;1.40;;
29402;SDS011;16382;59.942;30.472;2022-09-29T07:56:28;1.52;;;1.33;;
29402;SDS011;16382;59.942;30.472;2022-09-29T07:58:57;2.20;;;1.52;;
29402;SDS011;16382;59.942;30.472;2022-09-29T08:01:24;1.58;;;1.45;;
29402;SDS011;16382;59.942;30.472;2022-09-29T08:03:52;24.38;;;11.70;;
29402;SDS011;16382;59.942;30.472;2022-09-29T08:06:22;2.65;;;1.80;;
29402;SDS011;16382;59.942;30.472;2022-09-29T08:08:51;2.05;;;1.52;;
29402;SDS011;16382;59.942;30.472;2022-09-29T08:11:19;2.65;;;1.63;;
29402;SDS011;16382;59.942;30.472;2022-09-29T08:13:46;7.35;;;1.67;;
29402;SDS011;16382;59.942;30.472;2022-09-29T08:16:16;3.25;;;1.60;;
29402;SDS011;16382;59.942;30.472;2022-09-29T08:18:43;6.78;;;2.80;;
29402;SDS011;16382;59.942;30.472;2022-09-29T08:21:10;1.77;;;1.65;;
29402;SDS011;16382;59.942;30.472;2022-09-29T08:23:40;2.13;;;1.90;;
29402;SDS011;16382;59.942;30.472;2022-09-29T08:26:10;1.38;;;1.27;;
29402;SDS011;16382;59.942;30.472;2022-09-29T08:28:39;1.38;;;1.25;;
29402;SDS011;16382;59.942;30.472;2022-09-29T08:31:07;1.40;;;1.30;;
29402;SDS011;16382;59.942;30.472;2022-09-29T08:33:37;2.08;;;1.58;;
29402;SDS011;16382;59.942;30.472;2022-09-29T08:36:05;2.05;;;1.40;;
29402;SDS011;16382;59.942;30.472;2022-09-29T08:38:40;4.40;;;1.88;;
29402;SDS011;16382;59.942;30.472;2022-09-29T08:41:17;2.08;;;1.50;;
29402;SDS011;16382;59.942;30.472;2022-09-29T08:43:52;3.42;;;1.40;;
29402;SDS011;16382;59.942;30.472;2022-09-29T08:46:24;2.97;;;1.25;;
29402;SDS011;16382;59.942;30.472;2022-09-29T08:48:55;1.40;;;1.30;;
29402;SDS011;16382;59.942;30.472;2022-09-29T08:51:27;3.92;;;1.60;;
29402;SDS011;16382;59.942;30.472;2022-09-29T08:54:01;2.00;;;1.50;;
29402;SDS011;16382;59.942;30.472;2022-09-29T08:56:35;1.98;;;1.88;;
29402;SDS011;16382;59.942;30.472;2022-09-29T08:59:02;1.92;;;1.30;;
29402;SDS011;16382;59.942;30.472;2022-09-29T09:01:31;2.78;;;2.15;;
29402;SDS011;16382;59.942;30.472;2022-09-29T09:04:11;1.38;;;1.27;;
29402;SDS011;16382;59.942;30.472;2022-09-29T09:07:00;2.65;;;1.80;;
29402;SDS011;16382;59.942;30.472;2022-09-29T09:09:40;3.70;;;1.73;;
29402;SDS011;16382;59.942;30.472;2022-09-29T09:12:28;1.42;;;1.15;;
29402;SDS011;16382;59.942;30.472;2022-09-29T09:18:18;1.77;;;1.67;;
29402;SDS011;16382;59.942;30.472;2022-09-29T09:20:58;2.50;;;1.83;;
29402;SDS011;16382;59.942;30.472;2022-09-29T09:23:35;2.92;;;1.60;;
29402;SDS011;16382;59.942;30.472;2022-09-29T09:26:16;2.67;;;1.77;;
29402;SDS011;16382;59.942;30.472;2022-09-29T09:28:46;1.77;;;1.67;;
29402;SDS011;16382;59.942;30.472;2022-09-29T09:31:19;1.98;;;1.55;;
29402;SDS011;16382;59.942;30.472;2022-09-29T09:33:55;1.90;;;1.70;;
29402;SDS011;16382;59.942;30.472;2022-09-29T09:36:28;2.90;;;1.60;;
29402;SDS011;16382;59.942;30.472;2022-09-29T09:39:00;2.08;;;1.63;;
29402;SDS011;16382;59.942;30.472;2022-09-29T09:41:32;2.20;;;1.60;;
29402;SDS011;16382;59.942;30.472;2022-09-29T09:44:02;3.72;;;2.22;;
29402;SDS011;16382;59.942;30.472;2022-09-29T09:46:35;3.25;;;1.95;;
29402;SDS011;16382;59.942;30.472;2022-09-29T09:49:10;1.90;;;1.33;;
29402;SDS011;16382;59.942;30.472;2022-09-29T09:51:45;2.35;;;1.88;;
29402;SDS011;16382;59.942;30.472;2022-09-29T09:54:23;2.50;;;1.60;;
29402;SDS011;16382;59.942;30.472;2022-09-29T09:57:17;3.20;;;1.65;;
29402;SDS011;16382;59.942;30.472;2022-09-29T10:00:09;3.03;;;2.00;;
29402;SDS011;16382;59.942;30.472;2022-09-29T10:02:42;1.80;;;1.70;;
29402;SDS011;16382;59.942;30.472;2022-09-29T10:07:40;2.03;;;1.92;;
29402;SDS011;16382;59.942;30.472;2022-09-29T10:10:13;4.57;;;1.83;;
29402;SDS011;16382;59.942;30.472;2022-09-29T10:12:44;2.78;;;1.90;;
29402;SDS011;16382;59.942;30.472;2022-09-29T10:15:14;2.25;;;2.05;;
29402;SDS011;16382;59.942;30.472;2022-09-29T10:17:47;4.68;;;2.38;;
29402;SDS011;16382;59.942;30.472;2022-09-29T10:20:28;2.40;;;2.17;;
29402;SDS011;16382;59.942;30.472;2022-09-29T10:23:18;2.00;;;1.90;;
29402;SDS011;16382;59.942;30.472;2022-09-29T10:25:50;2.90;;;2.10;;
29402;SDS011;16382;59.942;30.472;2022-09-29T10:28:27;3.45;;;2.30;;
29402;SDS011;16382;59.942;30.472;2022-09-29T10:31:02;4.95;;;2.40;;
29402;SDS011;16382;59.942;30.472;2022-09-29T10:33:44;4.57;;;2.40;;
29402;SDS011;16382;59.942;30.472;2022-09-29T10:36:14;3.50;;;2.72;;
29402;SDS011;16382;59.942;30.472;2022-09-29T10:38:44;2.08;;;1.90;;
29402;SDS011;16382;59.942;30.472;2022-09-29T10:41:12;6.90;;;1.85;;
29402;SDS011;16382;59.942;30.472;2022-09-29T10:43:42;3.90;;;1.83;;
29402;SDS011;16382;59.942;30.472;2022-09-29T10:49:06;5.65;;;2.50;;
29402;SDS011;16382;59.942;30.472;2022-09-29T10:51:36;3.22;;;2.55;;
29402;SDS011;16382;59.942;30.472;2022-09-29T10:54:06;2.92;;;2.20;;
29402;SDS011;16382;59.942;30.472;2022-09-29T10:56:34;3.65;;;2.10;;
29402;SDS011;16382;59.942;30.472;2022-09-29T10:59:02;4.63;;;2.50;;
29402;SDS011;16382;59.942;30.472;2022-09-29T11:01:30;3.75;;;2.67;;
29402;SDS011;16382;59.942;30.472;2022-09-29T11:04:04;3.85;;;3.00;;
29402;SDS011;16382;59.942;30.472;2022-09-29T11:06:41;2.97;;;2.63;;
29402;SDS011;16382;59.942;30.472;2022-09-29T11:11:55;3.42;;;2.58;;
29402;SDS011;16382;59.942;30.472;2022-09-29T11:14:31;6.82;;;3.00;;
29402;SDS011;16382;59.942;30.472;2022-09-29T11:17:19;4.57;;;2.35;;
29402;SDS011;16382;59.942;30.472;2022-09-29T11:19:50;6.80;;;2.35;;
29402;SDS011;16382;59.942;30.472;2022-09-29T11:25:29;2.60;;;1.95;;
29402;SDS011;16382;59.942;30.472;2022-09-29T11:28:15;3.35;;;2.15;;
29402;SDS011;16382;59.942;30.472;2022-09-29T11:31:04;3.58;;;2.10;;
29402;SDS011;16382;59.942;30.472;2022-09-29T11:33:43;2.60;;;2.30;;
29402;SDS011;16382;59.942;30.472;2022-09-29T11:36:20;2.58;;;2.38;;
29402;SDS011;16382;59.942;30.472;2022-09-29T11:39:01;2.97;;;2.30;;
29402;SDS011;16382;59.942;30.472;2022-09-29T11:42:04;2.42;;;2.22;;
29402;SDS011;16382;59.942;30.472;2022-09-29T11:44:57;2.40;;;1.92;;
29402;SDS011;16382;59.942;30.472;2022-09-29T11:50:52;5.22;;;2.67;;
29402;SDS011;16382;59.942;30.472;2022-09-29T11:53:38;4.18;;;2.45;;
29402;SDS011;16382;59.942;30.472;2022-09-29T11:56:18;4.70;;;2.85;;
29402;SDS011;16382;59.942;30.472;2022-09-29T11:59:00;6.38;;;3.47;;
29402;SDS011;16382;59.942;30.472;2022-09-29T12:01:45;2.67;;;2.42;;
29402;SDS011;16382;59.942;30.472;2022-09-29T12:04:28;2.42;;;2.22;;
29402;SDS011;16382;59.942;30.472;2022-09-29T12:07:05;3.17;;;2.00;;
29402;SDS011;16382;59.942;30.472;2022-09-29T12:13:06;2.20;;;2.00;;
29402;SDS011;16382;59.942;30.472;2022-09-29T12:15:40;2.67;;;1.67;;
29402;SDS011;16382;59.942;30.472;2022-09-29T12:18:20;2.00;;;1.80;;
29402;SDS011;16382;59.942;30.472;2022-09-29T12:20:52;4.07;;;3.55;;
29402;SDS011;16382;59.942;30.472;2022-09-29T12:23:22;3.17;;;2.00;;
29402;SDS011;16382;59.942;30.472;2022-09-29T12:25:54;1.80;;;1.70;;
29402;SDS011;16382;59.942;30.472;2022-09-29T12:28:26;1.70;;;1.60;;
29402;SDS011;16382;59.942;30.472;2022-09-29T12:31:02;2.78;;;1.83;;
29402;SDS011;16382;59.942;30.472;2022-09-29T12:33:36;2.35;;;2.15;;
29402;SDS011;16382;59.942;30.472;2022-09-29T12:36:14;2.28;;;2.17;;
29402;SDS011;16382;59.942;30.472;2022-09-29T12:39:16;1.90;;;1.80;;
29402;SDS011;16382;59.942;30.472;2022-09-29T12:41:52;3.33;;;1.73;;
29402;SDS011;16382;59.942;30.472;2022-09-29T12:44:29;4.47;;;2.33;;
29402;SDS011;16382;59.942;30.472;2022-09-29T12:47:04;3.80;;;2.80;;
29402;SDS011;16382;59.942;30.472;2022-09-29T12:49:40;2.83;;;2.63;;
29402;SDS011;16382;59.942;30.472;2022-09-29T12:52:22;2.92;;;2.60;;
29402;SDS011;16382;59.942;30.472;2022-09-29T12:54:56;2.97;;;2.67;;
29402;SDS011;16382;59.942;30.472;2022-09-29T12:57:29;3.70;;;3.17;;
29402;SDS011;16382;59.942;30.472;2022-09-29T13:00:00;3.13;;;2.67;;
29402;SDS011;16382;59.942;30.472;2022-09-29T13:02:40;3.85;;;2.35;;
29402;SDS011;16382;59.942;30.472;2022-09-29T13:05:34;3.67;;;2.17;;
29402;SDS011;16382;59.942;30.472;2022-09-29T13:08:25;4.40;;;2.80;;
29402;SDS011;16382;59.942;30.472;2022-09-29T13:11:12;2.80;;;1.95;;
29402;SDS011;16382;59.942;30.472;2022-09-29T13:13:50;4.15;;;2.50;;
29402;SDS011;16382;59.942;30.472;2022-09-29T13:16:35;2.58;;;2.38;;
29402;SDS011;16382;59.942;30.472;2022-09-29T13:19:30;3.80;;;2.85;;
29402;SDS011;16382;59.942;30.472;2022-09-29T13:22:15;3.95;;;3.25;;
29402;SDS011;16382;59.942;30.472;2022-09-29T13:24:54;4.47;;;3.17;;
29402;SDS011;16382;59.942;30.472;2022-09-29T13:27:31;4.07;;;3.78;;
29402;SDS011;16382;59.942;30.472;2022-09-29T13:30:04;3.45;;;3.20;;
29402;SDS011;16382;59.942;30.472;2022-09-29T13:32:39;5.72;;;3.58;;
29402;SDS011;16382;59.942;30.472;2022-09-29T13:35:10;6.13;;;3.30;;
29402;SDS011;16382;59.942;30.472;2022-09-29T13:37:42;9.77;;;4.03;;
29402;SDS011;16382;59.942;30.472;2022-09-29T13:40:17;8.18;;;3.60;;
29402;SDS011;16382;59.942;30.472;2022-09-29T13:42:49;4.00;;;3.60;;
29402;SDS011;16382;59.942;30.472;2022-09-29T13:54:23;4.53;;;3.13;;
29402;SDS011;16382;59.942;30.472;2022-09-29T13:57:01;4.00;;;2.40;;
29402;SDS011;16382;59.942;30.472;2022-09-29T14:00:00;2.83;;;2.42;;
29402;SDS011;16382;59.942;30.472;2022-09-29T14:02:37;4.20;;;3.10;;
29402;SDS011;16382;59.942;30.472;2022-09-29T14:05:27;2.60;;;2.40;;
29402;SDS011;16382;59.942;30.472;2022-09-29T14:08:10;2.40;;;2.20;;
29402;SDS011;16382;59.942;30.472;2022-09-29T14:10:42;2.78;;;2.58;;
29402;SDS011;16382;59.942;30.472;2022-09-29T14:13:14;2.38;;;2.17;;
29402;SDS011;16382;59.942;30.472;2022-09-29T14:15:48;3.00;;;2.60;;
29402;SDS011;16382;59.942;30.472;2022-09-29T14:18:33;3.47;;;3.17;;
29402;SDS011;16382;59.942;30.472;2022-09-29T14:21:07;4.03;;;2.95;;
29402;SDS011;16382;59.942;30.472;2022-09-29T14:23:45;3.08;;;2.80;;
29402;SDS011;16382;59.942;30.472;2022-09-29T14:29:09;3.72;;;3.33;;
29402;SDS011;16382;59.942;30.472;2022-09-29T14:31:44;3.20;;;2.90;;
29402;SDS011;16382;59.942;30.472;2022-09-29T14:34:16;3.92;;;3.53;;
29402;SDS011;16382;59.942;30.472;2022-09-29T14:36:47;4.65;;;3.67;;
29402;SDS011;16382;59.942;30.472;2022-09-29T14:39:18;4.57;;;3.63;;
29402;SDS011;16382;59.942;30.472;2022-09-29T14:41:47;3.67;;;3.10;;
29402;SDS011;16382;59.942;30.472;2022-09-29T14:44:16;4.68;;;3.10;;
29402;SDS011;16382;59.942;30.472;2022-09-29T14:46:54;4.38;;;3.15;;
29402;SDS011;16382;59.942;30.472;2022-09-29T14:49:52;3.00;;;2.70;;
29402;SDS011;16382;59.942;30.472;2022-09-29T14:52:49;3.20;;;3.00;;
29402;SDS011;16382;59.942;30.472;2022-09-29T14:55:30;4.20;;;2.77;;
29402;SDS011;16382;59.942;30.472;2022-09-29T14:58:12;3.10;;;2.80;;
29402;SDS011;16382;59.942;30.472;2022-09-29T15:00:54;4.43;;;3.38;;
29402;SDS011;16382;59.942;30.472;2022-09-29T15:06:08;6.82;;;3.05;;
29402;SDS011;16382;59.942;30.472;2022-09-29T15:08:38;5.40;;;3.28;;
29402;SDS011;16382;59.942;30.472;2022-09-29T15:11:26;3.15;;;2.95;;
29402;SDS011;16382;59.942;30.472;2022-09-29T15:13:56;3.97;;;3.58;;
29402;SDS011;16382;59.942;30.472;2022-09-29T15:16:30;5.93;;;4.30;;
29402;SDS011;16382;59.942;30.472;2022-09-29T15:22:00;5.50;;;2.83;;
29402;SDS011;16382;59.942;30.472;2022-09-29T15:24:43;4.28;;;3.35;;
29402;SDS011;16382;59.942;30.472;2022-09-29T15:27:31;3.97;;;3.58;;
29402;SDS011;16382;59.942;30.472;2022-09-29T15:29:58;5.28;;;3.75;;
29402;SDS011;16382;59.942;30.472;2022-09-29T15:32:27;3.65;;;3.38;;
29402;SDS011;16382;59.942;30.472;2022-09-29T15:35:00;4.90;;;4.47;;
29402;SDS011;16382;59.942;30.472;2022-09-29T15:37:36;4.40;;;4.10;;
29402;SDS011;16382;59.942;30.472;2022-09-29T15:40:27;6.78;;;5.55;;
29402;SDS011;16382;59.942;30.472;2022-09-29T15:43:07;8.15;;;5.00;;
29402;SDS011;16382;59.942;30.472;2022-09-29T15:45:58;7.18;;;5.88;;
29402;SDS011;16382;59.942;30.472;2022-09-29T15:48:27;13.25;;;5.65;;
29402;SDS011;16382;59.942;30.472;2022-09-29T15:50:57;6.10;;;5.50;;
29402;SDS011;16382;59.942;30.472;2022-09-29T15:53:26;7.03;;;5.85;;
29402;SDS011;16382;59.942;30.472;2022-09-29T15:55:55;8.70;;;6.35;;
29402;SDS011;16382;59.942;30.472;2022-09-29T16:01:10;10.13;;;7.38;;
29402;SDS011;16382;59.942;30.472;2022-09-29T16:03:41;10.63;;;7.15;;
29402;SDS011;16382;59.942;30.472;2022-09-29T16:06:18;8.45;;;7.35;;
29402;SDS011;16382;59.942;30.472;2022-09-29T16:08:49;11.68;;;7.70;;
29402;SDS011;16382;59.942;30.472;2022-09-29T16:11:21;10.52;;;7.90;;
29402;SDS011;16382;59.942;30.472;2022-09-29T16:13:51;8.95;;;7.45;;
29402;SDS011;16382;59.942;30.472;2022-09-29T16:16:25;9.75;;;7.70;;
29402;SDS011;16382;59.942;30.472;2022-09-29T16:18:57;11.85;;;7.72;;
29402;SDS011;16382;59.942;30.472;2022-09-29T16:21:35;11.80;;;8.00;;
29402;SDS011;16382;59.942;30.472;2022-09-29T16:24:05;10.80;;;6.88;;
29402;SDS011;16382;59.942;30.472;2022-09-29T16:26:37;10.98;;;6.93;;
29402;SDS011;16382;59.942;30.472;2022-09-29T16:38:09;8.48;;;6.50;;
29402;SDS011;16382;59.942;30.472;2022-09-29T16:40:44;7.47;;;6.00;;
29402;SDS011;16382;59.942;30.472;2022-09-29T16:43:17;9.60;;;6.55;;
29402;SDS011;16382;59.942;30.472;2022-09-29T16:45:49;7.80;;;5.93;;
29402;SDS011;16382;59.942;30.472;2022-09-29T16:48:18;6.45;;;5.85;;
29402;SDS011;16382;59.942;30.472;2022-09-29T16:50:48;7.45;;;5.95;;
29402;SDS011;16382;59.942;30.472;2022-09-29T16:53:25;7.97;;;5.57;;